Portada
METAR-TAF:

METAR-TAF

Aeroports :

Georgetown, Illa de l'Ascensió

latitud: 07-58S, longitud: 014-24W, altitud: 86 m

Observació

L'informe es va fer fa 17 hores i 3 minuts, a les 04:50 UTC
Vent 9 kt del Sud-Est
Temperatura 24°C
Humitat 69%
Pressió 1015 hPa
Visibilitat 10 km o més
Escasses núvols a una alçada de 3000 ft

METAR: FHAW 250450Z 13009KT 9999 FEW030 24/18 Q1015 NOSIG RMK BLU BLU

Hora: 21:53 (21:53 UTC)

Pronòstic

L'informe es va fer fa 20 hores i 23 minuts, a les 01:30 UTC
Pronòstic vàlid del 25 a les 03 UTC al 25 a les 21 UTC
Vent 10 kt del Sud/Sud-Est
Visibilitat 10 km o més
Escasses núvols a una alçada de 2800 ft

TAF: FHAW 250130Z 2503/2521 15010KT 9999 FEW028

Observacions i pronòstics meteorològics de més de 4000 aeroports (METAR i TAF).

Les estacions disponibles són els punts grocs i vermells al mapa.

Posi el ratolí al punt desitjat per veure el nom de l'estació.

Feu clic per veure les observacions i els pronòstics meteorològics.

Per canviar el mapa: feu clic els botons verds amb una creu de color negre per apropar; al botó verd amb un guió per allunyar la imatge; o en les fletxes verdes per a mapes adjacents.


METAR-TAF: